sensor_id;sensor_type;location;lat;lon;timestamp;temperature;humidity
13944;DHT22;7044;53.286;8.534;2022-09-03T00:00:07;16.00;30.10
13944;DHT22;7044;53.286;8.534;2022-09-03T00:02:39;16.00;52.50
13944;DHT22;7044;53.286;8.534;2022-09-03T00:05:15;15.70;99.90
13944;DHT22;7044;53.286;8.534;2022-09-03T00:07:48;15.90;70.70
13944;DHT22;7044;53.286;8.534;2022-09-03T00:10:20;15.90;52.30
13944;DHT22;7044;53.286;8.534;2022-09-03T00:12:50;16.00;78.70
13944;DHT22;7044;53.286;8.534;2022-09-03T00:15:19;16.60;99.90
13944;DHT22;7044;53.286;8.534;2022-09-03T00:17:52;15.90;72.50
13944;DHT22;7044;53.286;8.534;2022-09-03T00:20:23;15.90;58.40
13944;DHT22;7044;53.286;8.534;2022-09-03T00:22:53;15.70;99.90
13944;DHT22;7044;53.286;8.534;2022-09-03T00:25:24;15.50;66.70
13944;DHT22;7044;53.286;8.534;2022-09-03T00:27:54;15.90;90.60
13944;DHT22;7044;53.286;8.534;2022-09-03T00:30:22;15.90;94.40
13944;DHT22;7044;53.286;8.534;2022-09-03T00:32:55;15.80;99.90
13944;DHT22;7044;53.286;8.534;2022-09-03T00:35:27;15.20;90.50
13944;DHT22;7044;53.286;8.534;2022-09-03T00:37:56;15.70;99.80
13944;DHT22;7044;53.286;8.534;2022-09-03T00:40:50;15.90;99.90
13944;DHT22;7044;53.286;8.534;2022-09-03T00:43:26;15.70;96.80
13944;DHT22;7044;53.286;8.534;2022-09-03T00:46:02;15.50;99.90
13944;DHT22;7044;53.286;8.534;2022-09-03T00:48:42;15.60;99.90
13944;DHT22;7044;53.286;8.534;2022-09-03T00:51:17;15.60;99.90
13944;DHT22;7044;53.286;8.534;2022-09-03T00:53:59;15.60;99.90
13944;DHT22;7044;53.286;8.534;2022-09-03T00:56:34;15.60;99.90
13944;DHT22;7044;53.286;8.534;2022-09-03T00:59:17;15.30;99.90
13944;DHT22;7044;53.286;8.534;2022-09-03T01:01:55;15.50;99.90
13944;DHT22;7044;53.286;8.534;2022-09-03T01:04:37;15.80;99.90
13944;DHT22;7044;53.286;8.534;2022-09-03T01:07:16;15.50;99.90
13944;DHT22;7044;53.286;8.534;2022-09-03T01:09:50;15.50;99.90
13944;DHT22;7044;53.286;8.534;2022-09-03T01:12:28;15.70;99.90
13944;DHT22;7044;53.286;8.534;2022-09-03T01:15:06;15.50;99.90
13944;DHT22;7044;53.286;8.534;2022-09-03T01:17:42;15.40;99.90
13944;DHT22;7044;53.286;8.534;2022-09-03T01:20:32;15.40;99.90
13944;DHT22;7044;53.286;8.534;2022-09-03T01:23:26;15.20;99.90
13944;DHT22;7044;53.286;8.534;2022-09-03T01:26:09;15.40;99.90
13944;DHT22;7044;53.286;8.534;2022-09-03T01:28:48;15.50;99.90
13944;DHT22;7044;53.286;8.534;2022-09-03T01:31:28;15.30;99.90
13944;DHT22;7044;53.286;8.534;2022-09-03T01:34:09;15.30;99.90
13944;DHT22;7044;53.286;8.534;2022-09-03T01:36:46;15.40;99.90
13944;DHT22;7044;53.286;8.534;2022-09-03T01:39:22;15.30;99.90
13944;DHT22;7044;53.286;8.534;2022-09-03T01:42:00;15.30;99.90
13944;DHT22;7044;53.286;8.534;2022-09-03T01:44:53;15.20;99.90
13944;DHT22;7044;53.286;8.534;2022-09-03T01:47:37;15.20;99.90
13944;DHT22;7044;53.286;8.534;2022-09-03T01:50:22;15.20;99.90
13944;DHT22;7044;53.286;8.534;2022-09-03T01:52:54;15.10;99.90
13944;DHT22;7044;53.286;8.534;2022-09-03T01:55:30;15.30;99.90
13944;DHT22;7044;53.286;8.534;2022-09-03T01:58:01;15.10;99.90
13944;DHT22;7044;53.286;8.534;2022-09-03T02:00:34;15.10;99.90
13944;DHT22;7044;53.286;8.534;2022-09-03T02:03:04;15.10;99.90
13944;DHT22;7044;53.286;8.534;2022-09-03T02:05:32;14.80;99.90
13944;DHT22;7044;53.286;8.534;2022-09-03T02:08:02;15.00;99.90
13944;DHT22;7044;53.286;8.534;2022-09-03T02:10:33;14.90;99.90
13944;DHT22;7044;53.286;8.534;2022-09-03T02:13:06;15.00;99.90
13944;DHT22;7044;53.286;8.534;2022-09-03T02:15:37;15.10;99.90
13944;DHT22;7044;53.286;8.534;2022-09-03T02:18:08;15.00;99.90
13944;DHT22;7044;53.286;8.534;2022-09-03T02:20:36;15.00;99.90
13944;DHT22;7044;53.286;8.534;2022-09-03T02:23:04;14.90;99.90
13944;DHT22;7044;53.286;8.534;2022-09-03T02:25:35;15.10;99.90
13944;DHT22;7044;53.286;8.534;2022-09-03T02:28:03;14.90;99.90
13944;DHT22;7044;53.286;8.534;2022-09-03T02:30:31;14.90;99.90
13944;DHT22;7044;53.286;8.534;2022-09-03T02:32:59;14.90;99.90
13944;DHT22;7044;53.286;8.534;2022-09-03T02:35:26;14.70;99.90
13944;DHT22;7044;53.286;8.534;2022-09-03T02:37:53;14.60;99.90
13944;DHT22;7044;53.286;8.534;2022-09-03T02:40:20;14.70;99.90
13944;DHT22;7044;53.286;8.534;2022-09-03T02:42:47;14.60;99.90
13944;DHT22;7044;53.286;8.534;2022-09-03T02:45:21;14.70;99.90
13944;DHT22;7044;53.286;8.534;2022-09-03T02:47:51;14.60;99.90
13944;DHT22;7044;53.286;8.534;2022-09-03T02:50:21;14.60;99.90
13944;DHT22;7044;53.286;8.534;2022-09-03T02:52:47;14.60;99.90
13944;DHT22;7044;53.286;8.534;2022-09-03T02:55:14;14.50;99.90
13944;DHT22;7044;53.286;8.534;2022-09-03T02:57:41;14.60;99.90
13944;DHT22;7044;53.286;8.534;2022-09-03T03:00:09;14.50;99.90
13944;DHT22;7044;53.286;8.534;2022-09-03T03:02:36;14.50;99.90
13944;DHT22;7044;53.286;8.534;2022-09-03T03:05:03;14.50;99.90
13944;DHT22;7044;53.286;8.534;2022-09-03T03:07:37;14.50;99.90
13944;DHT22;7044;53.286;8.534;2022-09-03T03:10:05;14.50;99.90
13944;DHT22;7044;53.286;8.534;2022-09-03T03:12:33;14.30;99.90
13944;DHT22;7044;53.286;8.534;2022-09-03T03:14:59;15.10;99.90
13944;DHT22;7044;53.286;8.534;2022-09-03T03:17:26;14.60;99.90
13944;DHT22;7044;53.286;8.534;2022-09-03T03:19:53;14.40;99.90
13944;DHT22;7044;53.286;8.534;2022-09-03T03:22:20;14.30;99.90
13944;DHT22;7044;53.286;8.534;2022-09-03T03:24:48;14.30;99.90
13944;DHT22;7044;53.286;8.534;2022-09-03T03:27:17;14.30;99.90
13944;DHT22;7044;53.286;8.534;2022-09-03T03:29:44;14.50;99.90
13944;DHT22;7044;53.286;8.534;2022-09-03T03:32:11;15.10;99.90
13944;DHT22;7044;53.286;8.534;2022-09-03T03:34:38;14.90;99.90
13944;DHT22;7044;53.286;8.534;2022-09-03T03:37:05;14.10;1.00
13944;DHT22;7044;53.286;8.534;2022-09-03T03:39:31;14.30;99.90
13944;DHT22;7044;53.286;8.534;2022-09-03T03:41:59;13.60;99.90
13944;DHT22;7044;53.286;8.534;2022-09-03T03:44:26;14.30;99.90
13944;DHT22;7044;53.286;8.534;2022-09-03T03:46:54;14.40;99.90
13944;DHT22;7044;53.286;8.534;2022-09-03T03:49:21;14.30;99.90
13944;DHT22;7044;53.286;8.534;2022-09-03T03:51:47;14.20;99.90
13944;DHT22;7044;53.286;8.534;2022-09-03T03:54:14;14.30;1.00
13944;DHT22;7044;53.286;8.534;2022-09-03T03:56:41;14.20;99.90
13944;DHT22;7044;53.286;8.534;2022-09-03T03:59:09;13.90;99.90
13944;DHT22;7044;53.286;8.534;2022-09-03T04:01:36;14.20;99.90
13944;DHT22;7044;53.286;8.534;2022-09-03T04:04:03;14.20;99.90
13944;DHT22;7044;53.286;8.534;2022-09-03T04:06:30;14.20;99.90
13944;DHT22;7044;53.286;8.534;2022-09-03T04:08:56;14.20;99.90
13944;DHT22;7044;53.286;8.534;2022-09-03T04:11:24;14.20;1.00
13944;DHT22;7044;53.286;8.534;2022-09-03T04:13:52;14.20;99.90
13944;DHT22;7044;53.286;8.534;2022-09-03T04:16:22;14.30;1.00
13944;DHT22;7044;53.286;8.534;2022-09-03T04:18:50;14.10;99.90
13944;DHT22;7044;53.286;8.534;2022-09-03T04:21:18;14.20;1.00
13944;DHT22;7044;53.286;8.534;2022-09-03T04:23:47;14.10;99.90
13944;DHT22;7044;53.286;8.534;2022-09-03T04:26:16;14.10;99.90
13944;DHT22;7044;53.286;8.534;2022-09-03T04:28:43;14.00;1.00
13944;DHT22;7044;53.286;8.534;2022-09-03T04:31:11;14.10;1.00
13944;DHT22;7044;53.286;8.534;2022-09-03T04:33:40;14.00;99.90
13944;DHT22;7044;53.286;8.534;2022-09-03T04:36:09;16.00;99.90
13944;DHT22;7044;53.286;8.534;2022-09-03T04:38:38;14.00;99.90
13944;DHT22;7044;53.286;8.534;2022-09-03T04:41:06;14.20;1.00
13944;DHT22;7044;53.286;8.534;2022-09-03T04:43:33;13.90;99.90
13944;DHT22;7044;53.286;8.534;2022-09-03T04:46:02;13.70;1.00
13944;DHT22;7044;53.286;8.534;2022-09-03T04:48:30;13.90;99.90
13944;DHT22;7044;53.286;8.534;2022-09-03T04:51:04;13.90;99.90
13944;DHT22;7044;53.286;8.534;2022-09-03T04:53:31;13.90;1.00
13944;DHT22;7044;53.286;8.534;2022-09-03T04:55:58;13.80;1.00
13944;DHT22;7044;53.286;8.534;2022-09-03T04:58:25;13.80;1.00
13944;DHT22;7044;53.286;8.534;2022-09-03T05:00:52;13.80;1.00
13944;DHT22;7044;53.286;8.534;2022-09-03T05:03:19;13.60;1.00
13944;DHT22;7044;53.286;8.534;2022-09-03T05:05:55;13.90;1.00
13944;DHT22;7044;53.286;8.534;2022-09-03T05:08:24;13.90;1.00
13944;DHT22;7044;53.286;8.534;2022-09-03T05:10:57;13.90;1.00
13944;DHT22;7044;53.286;8.534;2022-09-03T05:13:25;13.90;1.00
13944;DHT22;7044;53.286;8.534;2022-09-03T05:15:57;13.90;1.00
13944;DHT22;7044;53.286;8.534;2022-09-03T05:18:24;13.90;1.00
13944;DHT22;7044;53.286;8.534;2022-09-03T05:20:57;13.90;1.00
13944;DHT22;7044;53.286;8.534;2022-09-03T05:23:25;13.70;1.00
13944;DHT22;7044;53.286;8.534;2022-09-03T05:25:56;14.00;1.00
13944;DHT22;7044;53.286;8.534;2022-09-03T05:28:23;14.00;1.00
13944;DHT22;7044;53.286;8.534;2022-09-03T05:31:02;14.00;1.00
13944;DHT22;7044;53.286;8.534;2022-09-03T05:33:32;14.00;1.00
13944;DHT22;7044;53.286;8.534;2022-09-03T05:36:01;14.00;1.00
13944;DHT22;7044;53.286;8.534;2022-09-03T05:38:30;14.00;1.00
13944;DHT22;7044;53.286;8.534;2022-09-03T05:40:57;13.90;1.00
13944;DHT22;7044;53.286;8.534;2022-09-03T05:43:24;14.00;1.00
13944;DHT22;7044;53.286;8.534;2022-09-03T05:45:51;13.90;1.00
13944;DHT22;7044;53.286;8.534;2022-09-03T05:48:18;14.00;1.00
13944;DHT22;7044;53.286;8.534;2022-09-03T05:50:45;14.10;1.00
13944;DHT22;7044;53.286;8.534;2022-09-03T05:53:13;14.10;1.00
13944;DHT22;7044;53.286;8.534;2022-09-03T05:55:43;14.10;1.00
13944;DHT22;7044;53.286;8.534;2022-09-03T05:58:09;14.50;1.00
13944;DHT22;7044;53.286;8.534;2022-09-03T06:03:03;14.50;1.00
13944;DHT22;7044;53.286;8.534;2022-09-03T06:05:30;14.30;1.00
13944;DHT22;7044;53.286;8.534;2022-09-03T06:07:57;14.70;1.00
13944;DHT22;7044;53.286;8.534;2022-09-03T06:10:24;15.00;1.00
13944;DHT22;7044;53.286;8.534;2022-09-03T06:12:52;14.60;1.00
13944;DHT22;7044;53.286;8.534;2022-09-03T06:15:18;14.40;1.00
13944;DHT22;7044;53.286;8.534;2022-09-03T06:17:45;14.70;99.90
13944;DHT22;7044;53.286;8.534;2022-09-03T06:20:12;14.70;99.90
13944;DHT22;7044;53.286;8.534;2022-09-03T06:22:39;14.90;1.00
13944;DHT22;7044;53.286;8.534;2022-09-03T06:25:06;14.80;99.90
13944;DHT22;7044;53.286;8.534;2022-09-03T06:27:34;15.00;1.00
13944;DHT22;7044;53.286;8.534;2022-09-03T06:30:02;15.00;99.90
13944;DHT22;7044;53.286;8.534;2022-09-03T06:32:30;15.00;1.00
13944;DHT22;7044;53.286;8.534;2022-09-03T06:34:57;15.00;99.90
13944;DHT22;7044;53.286;8.534;2022-09-03T06:37:24;15.10;99.90
13944;DHT22;7044;53.286;8.534;2022-09-03T06:39:51;15.10;1.00
13944;DHT22;7044;53.286;8.534;2022-09-03T06:42:18;14.90;1.00
13944;DHT22;7044;53.286;8.534;2022-09-03T06:44:47;15.10;99.90
13944;DHT22;7044;53.286;8.534;2022-09-03T06:47:17;15.10;99.90
13944;DHT22;7044;53.286;8.534;2022-09-03T06:49:44;15.10;99.90
13944;DHT22;7044;53.286;8.534;2022-09-03T06:52:11;15.20;99.90
13944;DHT22;7044;53.286;8.534;2022-09-03T06:54:37;15.30;99.90
13944;DHT22;7044;53.286;8.534;2022-09-03T06:57:05;15.30;1.00
13944;DHT22;7044;53.286;8.534;2022-09-03T06:59:32;15.40;99.90
13944;DHT22;7044;53.286;8.534;2022-09-03T07:01:58;15.40;99.90
13944;DHT22;7044;53.286;8.534;2022-09-03T07:04:29;15.50;99.90
13944;DHT22;7044;53.286;8.534;2022-09-03T07:06:59;15.50;99.90
13944;DHT22;7044;53.286;8.534;2022-09-03T07:09:26;17.90;99.90
13944;DHT22;7044;53.286;8.534;2022-09-03T07:11:54;15.60;99.90
13944;DHT22;7044;53.286;8.534;2022-09-03T07:14:21;15.40;99.90
13944;DHT22;7044;53.286;8.534;2022-09-03T07:16:49;15.90;1.00
13944;DHT22;7044;53.286;8.534;2022-09-03T07:19:16;15.70;99.90
13944;DHT22;7044;53.286;8.534;2022-09-03T07:21:44;15.90;99.90
13944;DHT22;7044;53.286;8.534;2022-09-03T07:24:11;15.90;99.90
13944;DHT22;7044;53.286;8.534;2022-09-03T07:26:40;15.80;99.90
13944;DHT22;7044;53.286;8.534;2022-09-03T07:29:09;16.00;99.90
13944;DHT22;7044;53.286;8.534;2022-09-03T07:31:39;16.10;99.90
13944;DHT22;7044;53.286;8.534;2022-09-03T07:34:07;16.10;99.90
13944;DHT22;7044;53.286;8.534;2022-09-03T07:36:37;16.10;99.90
13944;DHT22;7044;53.286;8.534;2022-09-03T07:39:07;16.20;99.90
13944;DHT22;7044;53.286;8.534;2022-09-03T07:41:36;16.30;99.90
13944;DHT22;7044;53.286;8.534;2022-09-03T07:44:03;16.60;99.90
13944;DHT22;7044;53.286;8.534;2022-09-03T07:46:32;16.50;99.90
13944;DHT22;7044;53.286;8.534;2022-09-03T07:49:00;16.70;99.90
13944;DHT22;7044;53.286;8.534;2022-09-03T07:51:30;16.80;99.90
13944;DHT22;7044;53.286;8.534;2022-09-03T07:53:59;17.00;99.90
13944;DHT22;7044;53.286;8.534;2022-09-03T07:56:28;17.00;99.90
13944;DHT22;7044;53.286;8.534;2022-09-03T07:58:56;17.10;99.90
13944;DHT22;7044;53.286;8.534;2022-09-03T08:01:24;17.10;99.90
13944;DHT22;7044;53.286;8.534;2022-09-03T08:03:53;17.20;99.90
13944;DHT22;7044;53.286;8.534;2022-09-03T08:06:22;17.20;99.90
13944;DHT22;7044;53.286;8.534;2022-09-03T08:08:54;17.30;99.90
13944;DHT22;7044;53.286;8.534;2022-09-03T08:11:24;17.10;99.90
13944;DHT22;7044;53.286;8.534;2022-09-03T08:13:57;17.30;99.90
13944;DHT22;7044;53.286;8.534;2022-09-03T08:16:27;17.70;99.90
13944;DHT22;7044;53.286;8.534;2022-09-03T08:18:54;17.60;99.90
13944;DHT22;7044;53.286;8.534;2022-09-03T08:21:21;17.70;99.90
13944;DHT22;7044;53.286;8.534;2022-09-03T08:23:50;17.80;99.90
13944;DHT22;7044;53.286;8.534;2022-09-03T08:26:18;17.70;99.90
13944;DHT22;7044;53.286;8.534;2022-09-03T08:28:46;17.70;99.90
13944;DHT22;7044;53.286;8.534;2022-09-03T08:31:16;17.70;99.90
13944;DHT22;7044;53.286;8.534;2022-09-03T08:33:45;17.90;99.90
13944;DHT22;7044;53.286;8.534;2022-09-03T08:36:14;17.70;99.90
13944;DHT22;7044;53.286;8.534;2022-09-03T08:38:43;17.90;99.90
13944;DHT22;7044;53.286;8.534;2022-09-03T08:41:12;18.20;99.90
13944;DHT22;7044;53.286;8.534;2022-09-03T08:44:08;17.90;99.90
13944;DHT22;7044;53.286;8.534;2022-09-03T08:46:44;17.90;91.60
13944;DHT22;7044;53.286;8.534;2022-09-03T08:49:16;18.00;99.90
13944;DHT22;7044;53.286;8.534;2022-09-03T08:51:46;18.00;99.90
13944;DHT22;7044;53.286;8.534;2022-09-03T08:54:14;18.50;99.90
13944;DHT22;7044;53.286;8.534;2022-09-03T08:56:42;18.10;99.90
13944;DHT22;7044;53.286;8.534;2022-09-03T08:59:09;18.30;61.10
13944;DHT22;7044;53.286;8.534;2022-09-03T09:01:44;18.50;44.40
13944;DHT22;7044;53.286;8.534;2022-09-03T09:04:23;18.50;41.70
13944;DHT22;7044;53.286;8.534;2022-09-03T09:06:57;16.70;75.60
13944;DHT22;7044;53.286;8.534;2022-09-03T09:09:30;18.60;18.90
13944;DHT22;7044;53.286;8.534;2022-09-03T09:12:06;18.70;2.10
13944;DHT22;7044;53.286;8.534;2022-09-03T09:14:38;18.70;13.40
13944;DHT22;7044;53.286;8.534;2022-09-03T09:17:20;18.90;58.00
13944;DHT22;7044;53.286;8.534;2022-09-03T09:19:53;18.80;49.60
13944;DHT22;7044;53.286;8.534;2022-09-03T09:22:28;19.00;61.70
13944;DHT22;7044;53.286;8.534;2022-09-03T09:24:58;18.90;1.50
13944;DHT22;7044;53.286;8.534;2022-09-03T09:27:27;19.00;1.00
13944;DHT22;7044;53.286;8.534;2022-09-03T09:29:58;19.00;67.80
13944;DHT22;7044;53.286;8.534;2022-09-03T09:32:28;19.10;1.00
13944;DHT22;7044;53.286;8.534;2022-09-03T09:34:56;19.00;14.60
13944;DHT22;7044;53.286;8.534;2022-09-03T09:37:23;19.20;70.10
13944;DHT22;7044;53.286;8.534;2022-09-03T09:39:55;19.20;1.00
13944;DHT22;7044;53.286;8.534;2022-09-03T09:42:23;19.70;27.70
13944;DHT22;7044;53.286;8.534;2022-09-03T09:44:50;19.30;1.00
13944;DHT22;7044;53.286;8.534;2022-09-03T09:47:22;19.50;22.00
13944;DHT22;7044;53.286;8.534;2022-09-03T09:49:53;19.50;1.00
13944;DHT22;7044;53.286;8.534;2022-09-03T09:52:20;18.10;1.00
13944;DHT22;7044;53.286;8.534;2022-09-03T09:54:50;19.70;1.00
13944;DHT22;7044;53.286;8.534;2022-09-03T09:57:22;19.70;1.00
13944;DHT22;7044;53.286;8.534;2022-09-03T09:59:49;19.90;1.00
13944;DHT22;7044;53.286;8.534;2022-09-03T10:02:22;19.90;1.00
13944;DHT22;7044;53.286;8.534;2022-09-03T10:04:55;20.00;1.00
13944;DHT22;7044;53.286;8.534;2022-09-03T10:07:27;20.00;1.00
13944;DHT22;7044;53.286;8.534;2022-09-03T10:10:05;19.80;1.00
13944;DHT22;7044;53.286;8.534;2022-09-03T10:12:36;20.10;1.00
13944;DHT22;7044;53.286;8.534;2022-09-03T10:15:21;20.10;1.00
13944;DHT22;7044;53.286;8.534;2022-09-03T10:17:59;20.20;1.00
13944;DHT22;7044;53.286;8.534;2022-09-03T10:20:35;18.90;1.00
13944;DHT22;7044;53.286;8.534;2022-09-03T10:23:10;20.30;1.00
13944;DHT22;7044;53.286;8.534;2022-09-03T10:25:45;20.30;1.00
13944;DHT22;7044;53.286;8.534;2022-09-03T10:28:20;20.20;1.00
13944;DHT22;7044;53.286;8.534;2022-09-03T10:31:08;20.30;1.00
13944;DHT22;7044;53.286;8.534;2022-09-03T10:33:46;20.10;1.00
13944;DHT22;7044;53.286;8.534;2022-09-03T10:36:19;20.20;1.00
13944;DHT22;7044;53.286;8.534;2022-09-03T10:38:52;20.30;1.00
13944;DHT22;7044;53.286;8.534;2022-09-03T10:41:31;20.50;1.00
13944;DHT22;7044;53.286;8.534;2022-09-03T10:44:20;20.50;1.00
13944;DHT22;7044;53.286;8.534;2022-09-03T10:46:56;21.40;1.00
13944;DHT22;7044;53.286;8.534;2022-09-03T10:49:35;20.60;1.00
13944;DHT22;7044;53.286;8.534;2022-09-03T10:52:09;20.60;1.00
13944;DHT22;7044;53.286;8.534;2022-09-03T10:55:02;20.70;1.00
13944;DHT22;7044;53.286;8.534;2022-09-03T10:57:37;20.70;1.00
13944;DHT22;7044;53.286;8.534;2022-09-03T11:00:07;20.70;1.00
13944;DHT22;7044;53.286;8.534;2022-09-03T11:02:52;20.90;1.00
13944;DHT22;7044;53.286;8.534;2022-09-03T11:05:22;21.10;1.00
13944;DHT22;7044;53.286;8.534;2022-09-03T11:08:00;21.00;1.00
13944;DHT22;7044;53.286;8.534;2022-09-03T11:10:32;21.00;1.00
13944;DHT22;7044;53.286;8.534;2022-09-03T11:13:03;21.00;1.00
13944;DHT22;7044;53.286;8.534;2022-09-03T11:15:35;21.20;1.00
13944;DHT22;7044;53.286;8.534;2022-09-03T11:18:15;20.90;1.00
13944;DHT22;7044;53.286;8.534;2022-09-03T11:20:46;21.10;1.00
13944;DHT22;7044;53.286;8.534;2022-09-03T11:23:17;21.00;1.00
13944;DHT22;7044;53.286;8.534;2022-09-03T11:25:48;21.10;1.00
13944;DHT22;7044;53.286;8.534;2022-09-03T11:28:25;21.20;1.00
13944;DHT22;7044;53.286;8.534;2022-09-03T11:31:08;21.10;1.00
13944;DHT22;7044;53.286;8.534;2022-09-03T11:33:44;21.10;1.00
13944;DHT22;7044;53.286;8.534;2022-09-03T11:36:11;21.30;1.00
13944;DHT22;7044;53.286;8.534;2022-09-03T11:38:40;21.30;1.00
13944;DHT22;7044;53.286;8.534;2022-09-03T11:41:12;21.40;1.00
13944;DHT22;7044;53.286;8.534;2022-09-03T11:43:40;21.50;1.00
13944;DHT22;7044;53.286;8.534;2022-09-03T11:46:10;21.70;1.00
13944;DHT22;7044;53.286;8.534;2022-09-03T11:48:41;21.50;1.00
13944;DHT22;7044;53.286;8.534;2022-09-03T11:51:30;21.50;1.00
13944;DHT22;7044;53.286;8.534;2022-09-03T11:54:03;21.50;1.00
13944;DHT22;7044;53.286;8.534;2022-09-03T11:56:31;21.50;1.00
13944;DHT22;7044;53.286;8.534;2022-09-03T11:59:02;21.50;1.00
13944;DHT22;7044;53.286;8.534;2022-09-03T12:01:31;21.60;1.00
13944;DHT22;7044;53.286;8.534;2022-09-03T12:04:00;21.50;1.00
13944;DHT22;7044;53.286;8.534;2022-09-03T12:06:41;21.60;1.00
13944;DHT22;7044;53.286;8.534;2022-09-03T12:09:25;21.70;1.00
13944;DHT22;7044;53.286;8.534;2022-09-03T12:12:00;21.80;1.00
13944;DHT22;7044;53.286;8.534;2022-09-03T12:14:38;21.80;1.00
13944;DHT22;7044;53.286;8.534;2022-09-03T12:17:17;21.80;1.00
13944;DHT22;7044;53.286;8.534;2022-09-03T12:19:50;21.80;1.00
13944;DHT22;7044;53.286;8.534;2022-09-03T12:22:20;21.80;1.00
13944;DHT22;7044;53.286;8.534;2022-09-03T12:24:49;21.60;1.00
13944;DHT22;7044;53.286;8.534;2022-09-03T12:27:19;21.70;1.00
13944;DHT22;7044;53.286;8.534;2022-09-03T12:29:51;21.40;1.00
13944;DHT22;7044;53.286;8.534;2022-09-03T12:32:22;21.60;1.00
13944;DHT22;7044;53.286;8.534;2022-09-03T12:34:51;21.60;1.00
13944;DHT22;7044;53.286;8.534;2022-09-03T12:37:20;21.60;1.00
13944;DHT22;7044;53.286;8.534;2022-09-03T12:39:53;21.70;1.00
13944;DHT22;7044;53.286;8.534;2022-09-03T12:42:26;21.70;1.00
13944;DHT22;7044;53.286;8.534;2022-09-03T12:44:53;21.70;1.00
13944;DHT22;7044;53.286;8.534;2022-09-03T12:47:23;21.80;1.00
13944;DHT22;7044;53.286;8.534;2022-09-03T12:49:51;21.80;1.00
13944;DHT22;7044;53.286;8.534;2022-09-03T12:52:22;21.80;1.00
13944;DHT22;7044;53.286;8.534;2022-09-03T12:58:10;22.00;1.00
13944;DHT22;7044;53.286;8.534;2022-09-03T13:00:42;22.00;1.00
13944;DHT22;7044;53.286;8.534;2022-09-03T13:03:14;21.90;1.00
13944;DHT22;7044;53.286;8.534;2022-09-03T13:05:44;22.00;1.00
13944;DHT22;7044;53.286;8.534;2022-09-03T13:08:17;22.00;1.00
13944;DHT22;7044;53.286;8.534;2022-09-03T13:10:44;21.90;1.00
13944;DHT22;7044;53.286;8.534;2022-09-03T13:13:21;22.00;1.00
13944;DHT22;7044;53.286;8.534;2022-09-03T13:19:05;22.10;1.00
13944;DHT22;7044;53.286;8.534;2022-09-03T13:21:43;23.10;1.00
13944;DHT22;7044;53.286;8.534;2022-09-03T13:24:27;22.40;1.00
13944;DHT22;7044;53.286;8.534;2022-09-03T13:27:07;22.40;1.00
13944;DHT22;7044;53.286;8.534;2022-09-03T13:29:51;22.40;1.00
13944;DHT22;7044;53.286;8.534;2022-09-03T13:32:35;22.40;1.00
13944;DHT22;7044;53.286;8.534;2022-09-03T13:35:08;22.40;1.00
13944;DHT22;7044;53.286;8.534;2022-09-03T13:37:41;22.20;1.00
13944;DHT22;7044;53.286;8.534;2022-09-03T13:40:14;22.20;1.00
13944;DHT22;7044;53.286;8.534;2022-09-03T13:42:47;22.30;1.00
13944;DHT22;7044;53.286;8.534;2022-09-03T13:45:25;22.30;1.00
13944;DHT22;7044;53.286;8.534;2022-09-03T13:47:58;22.20;1.00
13944;DHT22;7044;53.286;8.534;2022-09-03T13:50:48;22.20;1.00
13944;DHT22;7044;53.286;8.534;2022-09-03T13:53:24;22.40;1.00
13944;DHT22;7044;53.286;8.534;2022-09-03T13:55:59;22.40;1.00
13944;DHT22;7044;53.286;8.534;2022-09-03T13:58:34;22.40;1.00
13944;DHT22;7044;53.286;8.534;2022-09-03T14:01:12;22.40;1.00
13944;DHT22;7044;53.286;8.534;2022-09-03T14:03:44;22.40;1.00
13944;DHT22;7044;53.286;8.534;2022-09-03T14:06:19;22.40;1.00
13944;DHT22;7044;53.286;8.534;2022-09-03T14:08:58;22.40;1.00
13944;DHT22;7044;53.286;8.534;2022-09-03T14:11:30;22.50;1.00
13944;DHT22;7044;53.286;8.534;2022-09-03T14:14:11;22.50;1.00
13944;DHT22;7044;53.286;8.534;2022-09-03T14:16:46;22.60;1.00
13944;DHT22;7044;53.286;8.534;2022-09-03T14:19:18;22.50;1.00
13944;DHT22;7044;53.286;8.534;2022-09-03T14:21:51;22.40;1.00
13944;DHT22;7044;53.286;8.534;2022-09-03T14:24:23;22.50;1.00
13944;DHT22;7044;53.286;8.534;2022-09-03T14:26:53;22.60;1.00
13944;DHT22;7044;53.286;8.534;2022-09-03T14:29:24;22.60;1.00
13944;DHT22;7044;53.286;8.534;2022-09-03T14:32:12;22.50;1.00
13944;DHT22;7044;53.286;8.534;2022-09-03T14:37:46;22.50;1.00
13944;DHT22;7044;53.286;8.534;2022-09-03T14:40:18;22.60;1.00
13944;DHT22;7044;53.286;8.534;2022-09-03T14:43:08;22.70;1.00
13944;DHT22;7044;53.286;8.534;2022-09-03T14:45:51;22.50;1.00
13944;DHT22;7044;53.286;8.534;2022-09-03T14:48:38;22.60;1.00
13944;DHT22;7044;53.286;8.534;2022-09-03T14:51:25;22.50;1.00
13944;DHT22;7044;53.286;8.534;2022-09-03T14:54:30;22.50;1.00
13944;DHT22;7044;53.286;8.534;2022-09-03T14:57:09;22.40;1.00
13944;DHT22;7044;53.286;8.534;2022-09-03T14:59:54;22.50;1.00
13944;DHT22;7044;53.286;8.534;2022-09-03T15:03:00;22.80;1.00
13944;DHT22;7044;53.286;8.534;2022-09-03T15:05:44;22.40;1.00
13944;DHT22;7044;53.286;8.534;2022-09-03T15:08:26;22.40;1.00
13944;DHT22;7044;53.286;8.534;2022-09-03T15:11:15;22.50;1.00
13944;DHT22;7044;53.286;8.534;2022-09-03T15:13:47;22.50;1.00
13944;DHT22;7044;53.286;8.534;2022-09-03T15:16:32;22.50;1.00
13944;DHT22;7044;53.286;8.534;2022-09-03T15:19:17;22.60;1.00
13944;DHT22;7044;53.286;8.534;2022-09-03T15:21:59;22.50;1.00
13944;DHT22;7044;53.286;8.534;2022-09-03T15:24:40;22.60;1.00
13944;DHT22;7044;53.286;8.534;2022-09-03T15:27:28;22.60;1.00
13944;DHT22;7044;53.286;8.534;2022-09-03T15:30:04;22.50;1.00
13944;DHT22;7044;53.286;8.534;2022-09-03T15:32:45;22.50;1.00
13944;DHT22;7044;53.286;8.534;2022-09-03T15:35:28;22.50;1.00
13944;DHT22;7044;53.286;8.534;2022-09-03T15:38:01;22.50;1.00
13944;DHT22;7044;53.286;8.534;2022-09-03T15:40:32;22.40;1.00
13944;DHT22;7044;53.286;8.534;2022-09-03T15:43:04;22.40;1.00
13944;DHT22;7044;53.286;8.534;2022-09-03T15:45:39;22.40;1.00
13944;DHT22;7044;53.286;8.534;2022-09-03T15:48:22;22.40;1.00
13944;DHT22;7044;53.286;8.534;2022-09-03T15:50:55;22.40;1.00
13944;DHT22;7044;53.286;8.534;2022-09-03T15:53:32;22.40;1.00
13944;DHT22;7044;53.286;8.534;2022-09-03T15:56:17;22.30;1.00
13944;DHT22;7044;53.286;8.534;2022-09-03T15:58:49;22.30;1.00
13944;DHT22;7044;53.286;8.534;2022-09-03T16:01:36;22.30;1.00
13944;DHT22;7044;53.286;8.534;2022-09-03T16:04:21;22.30;1.00
13944;DHT22;7044;53.286;8.534;2022-09-03T16:06:56;22.30;1.00
13944;DHT22;7044;53.286;8.534;2022-09-03T16:09:33;22.30;1.00
13944;DHT22;7044;53.286;8.534;2022-09-03T16:12:09;22.30;1.00
13944;DHT22;7044;53.286;8.534;2022-09-03T16:14:39;22.40;1.00
13944;DHT22;7044;53.286;8.534;2022-09-03T16:17:17;22.30;1.00
13944;DHT22;7044;53.286;8.534;2022-09-03T16:19:52;22.20;1.00
13944;DHT22;7044;53.286;8.534;2022-09-03T16:22:26;22.20;1.00
13944;DHT22;7044;53.286;8.534;2022-09-03T16:25:00;22.20;1.00
13944;DHT22;7044;53.286;8.534;2022-09-03T16:27:32;22.10;1.00
13944;DHT22;7044;53.286;8.534;2022-09-03T16:30:07;22.20;1.00
13944;DHT22;7044;53.286;8.534;2022-09-03T16:32:45;22.10;1.00
13944;DHT22;7044;53.286;8.534;2022-09-03T16:35:26;22.10;1.00
13944;DHT22;7044;53.286;8.534;2022-09-03T16:38:08;22.10;1.00
13944;DHT22;7044;53.286;8.534;2022-09-03T16:40:41;22.10;1.00